La Cueva, New Mexico
Current Conditions -  °F | °C
As of 4:23 PM on Wednesday 17 Dec 2014 (Local Time) from KSAF Reporting Station
Haze Haze  
Wind Chill: 29°   Ceiling: 100
Heat Index: 34°   Visibility: 3mi
Dew Point: 31°   Wind: 6mph
Humidity: 89%   Direction: 280°W
Pressure: 29.98"   Gusts: NA
Location:  35.6111°N, 105.774°W
Report Text: KSAF 172323Z 28005KT 3SM BR OVC001 01/M01 A2998 RMK AO2 T00111006
Loading
Personal Weather Stations






























Interactive Weather Map New forecast layout! Learn more

10-Day Weather Forecast

Advertisements
Track Severe Weather on mobile